createdAt,value
2019-05-19T00:01:48.340Z,99.90
2019-05-19T00:15:15.657Z,99.90
2019-05-19T00:17:53.465Z,99.90
2019-05-19T00:20:23.586Z,99.90
2019-05-19T00:23:12.034Z,99.90
2019-05-19T00:25:45.161Z,99.90
2019-05-19T00:28:16.306Z,99.90
2019-05-19T00:30:49.002Z,99.90
2019-05-19T00:33:20.808Z,99.90
2019-05-19T00:35:51.921Z,99.90
2019-05-19T00:38:24.795Z,99.90
2019-05-19T00:41:02.532Z,99.90
2019-05-19T00:43:40.590Z,99.90
2019-05-19T00:46:35.099Z,99.90
2019-05-19T00:49:10.778Z,99.90
2019-05-19T00:51:41.308Z,99.90
2019-05-19T00:54:11.222Z,99.90
2019-05-19T00:59:30.711Z,99.90
2019-05-19T01:02:11.350Z,99.90
2019-05-19T01:04:41.500Z,99.90
2019-05-19T01:07:34.115Z,99.90
2019-05-19T01:09:43.146Z,99.90
2019-05-19T01:12:13.137Z,99.90
2019-05-19T01:14:44.952Z,99.90
2019-05-19T01:17:16.302Z,99.90
2019-05-19T01:19:55.665Z,99.90
2019-05-19T01:22:17.971Z,99.90
2019-05-19T01:25:23.965Z,99.90
2019-05-19T01:27:54.045Z,99.90
2019-05-19T01:30:24.412Z,99.90
2019-05-19T01:32:57.925Z,99.90
2019-05-19T01:35:50.584Z,99.90
2019-05-19T01:38:24.734Z,99.90
2019-05-19T01:40:56.081Z,99.90
2019-05-19T01:43:25.767Z,99.90
2019-05-19T01:45:55.808Z,99.90
2019-05-19T01:48:36.820Z,99.90
2019-05-19T01:51:06.644Z,99.90
2019-05-19T01:56:18.620Z,99.90
2019-05-19T01:58:49.343Z,99.90
2019-05-19T02:01:23.559Z,99.90
2019-05-19T02:03:58.158Z,99.90
2019-05-19T02:13:00.033Z,99.90
2019-05-19T02:15:30.105Z,99.90
2019-05-19T02:18:00.327Z,99.90
2019-05-19T02:20:33.074Z,99.90
2019-05-19T02:23:01.961Z,99.90
2019-05-19T02:25:34.782Z,99.90
2019-05-19T02:28:09.275Z,99.90
2019-05-19T02:30:39.389Z,99.90
2019-05-19T02:33:09.378Z,99.90
2019-05-19T02:35:39.317Z,99.90
2019-05-19T02:38:09.271Z,99.90
2019-05-19T02:40:43.691Z,99.90
2019-05-19T02:43:17.869Z,99.90
2019-05-19T02:45:48.184Z,99.90
2019-05-19T02:48:19.684Z,99.90
2019-05-19T02:50:53.107Z,99.90
2019-05-19T02:53:23.813Z,99.90
2019-05-19T02:55:56.908Z,99.90
2019-05-19T02:58:26.817Z,99.90
2019-05-19T03:00:57.189Z,99.90
2019-05-19T03:03:27.611Z,99.90
2019-05-19T03:06:03.627Z,99.90
2019-05-19T03:08:33.378Z,99.90
2019-05-19T03:11:06.916Z,99.90
2019-05-19T03:13:46.176Z,99.90
2019-05-19T03:16:19.977Z,99.90
2019-05-19T03:18:58.493Z,99.90
2019-05-19T03:21:40.480Z,99.90
2019-05-19T03:24:20.268Z,99.90
2019-05-19T03:26:59.204Z,99.90
2019-05-19T03:29:45.135Z,99.90
2019-05-19T03:35:58.956Z,99.90
2019-05-19T03:38:33.233Z,99.90
2019-05-19T03:41:03.250Z,99.90
2019-05-19T03:43:33.313Z,99.90
2019-05-19T03:46:07.995Z,99.90
2019-05-19T03:48:38.637Z,99.90
2019-05-19T03:51:29.115Z,99.90
2019-05-19T03:53:53.205Z,99.90
2019-05-19T03:56:38.273Z,99.90
2019-05-19T03:59:11.605Z,99.90
2019-05-19T04:01:44.292Z,99.90
2019-05-19T04:04:21.022Z,99.90
2019-05-19T04:07:11.881Z,99.90
2019-05-19T04:09:43.280Z,99.90
2019-05-19T04:12:15.998Z,99.90
2019-05-19T04:15:20.895Z,99.90
2019-05-19T04:17:56.642Z,99.90
2019-05-19T04:20:32.052Z,99.90
2019-05-19T04:23:14.002Z,99.90
2019-05-19T04:25:44.721Z,99.90
2019-05-19T04:28:21.018Z,99.90
2019-05-19T04:30:53.862Z,99.90
2019-05-19T04:33:29.998Z,99.90
2019-05-19T04:36:03.086Z,99.90
2019-05-19T04:38:48.494Z,99.90
2019-05-19T04:41:24.755Z,99.90
2019-05-19T04:48:44.469Z,99.90
2019-05-19T04:51:24.150Z,99.90
2019-05-19T04:54:09.998Z,99.90
2019-05-19T04:56:42.881Z,99.90
2019-05-19T04:59:20.373Z,99.90
2019-05-19T05:02:01.961Z,99.90
2019-05-19T05:04:35.562Z,99.90
2019-05-19T05:07:08.755Z,99.90
2019-05-19T05:09:53.520Z,99.90
2019-05-19T05:12:29.064Z,99.90
2019-05-19T05:15:05.639Z,99.90
2019-05-19T05:17:39.104Z,99.90
2019-05-19T05:20:21.595Z,99.90
2019-05-19T05:23:04.050Z,99.90
2019-05-19T05:25:37.446Z,99.90
2019-05-19T05:28:28.289Z,99.90
2019-05-19T05:31:17.502Z,99.90
2019-05-19T05:33:53.271Z,99.90
2019-05-19T05:36:35.371Z,99.90
2019-05-19T05:39:30.989Z,99.90
2019-05-19T05:42:13.644Z,99.90
2019-05-19T05:44:51.073Z,99.90
2019-05-19T05:47:27.663Z,99.90
2019-05-19T05:50:00.657Z,99.90
2019-05-19T05:52:42.800Z,99.90
2019-05-19T05:55:19.050Z,99.90
2019-05-19T05:57:52.718Z,99.90
2019-05-19T06:00:25.632Z,99.90
2019-05-19T06:02:55.701Z,99.90
2019-05-19T06:05:28.888Z,99.90
2019-05-19T06:08:04.767Z,99.90
2019-05-19T06:10:37.491Z,99.90
2019-05-19T06:13:10.572Z,99.90
2019-05-19T06:15:48.132Z,99.90
2019-05-19T06:18:27.786Z,99.90
2019-05-19T06:21:13.663Z,99.90
2019-05-19T06:23:46.547Z,99.90
2019-05-19T06:26:34.421Z,99.90
2019-05-19T06:29:04.344Z,99.90
2019-05-19T06:31:41.477Z,99.90
2019-05-19T06:34:11.810Z,99.90
2019-05-19T06:36:44.324Z,99.90
2019-05-19T06:39:17.267Z,99.90
2019-05-19T06:41:50.637Z,99.90
2019-05-19T06:44:48.636Z,99.90
2019-05-19T06:47:18.630Z,99.90
2019-05-19T06:49:48.717Z,99.90
2019-05-19T06:52:21.765Z,99.90
2019-05-19T06:54:51.778Z,99.90
2019-05-19T06:57:21.811Z,99.90
2019-05-19T06:59:54.269Z,99.90
2019-05-19T07:02:24.142Z,99.90
2019-05-19T07:04:54.100Z,99.90
2019-05-19T07:07:24.148Z,99.90
2019-05-19T07:09:58.728Z,99.90
2019-05-19T07:12:32.444Z,99.90
2019-05-19T07:15:02.360Z,99.90
2019-05-19T07:17:32.564Z,99.90
2019-05-19T07:20:05.568Z,99.90
2019-05-19T07:22:37.904Z,99.90
2019-05-19T07:25:10.711Z,99.90
2019-05-19T07:27:40.684Z,99.90
2019-05-19T07:30:10.554Z,99.90
2019-05-19T07:32:40.604Z,99.90
2019-05-19T07:35:10.606Z,99.90
2019-05-19T07:37:40.294Z,99.90
2019-05-19T07:40:11.188Z,99.90
2019-05-19T07:43:13.719Z,99.90
2019-05-19T07:45:43.488Z,99.90
2019-05-19T07:48:14.395Z,99.90
2019-05-19T07:50:44.416Z,99.90
2019-05-19T07:53:14.292Z,99.90
2019-05-19T07:55:44.207Z,99.90
2019-05-19T07:58:13.713Z,99.90
2019-05-19T08:00:43.448Z,99.90
2019-05-19T08:03:13.411Z,99.90
2019-05-19T08:05:43.505Z,99.90
2019-05-19T08:08:13.427Z,99.90
2019-05-19T08:10:43.428Z,99.90
2019-05-19T08:13:15.816Z,99.90
2019-05-19T08:15:45.535Z,99.90
2019-05-19T08:18:18.228Z,97.50
2019-05-19T08:20:52.365Z,98.30
2019-05-19T08:23:22.122Z,97.30
2019-05-19T08:25:51.888Z,95.60
2019-05-19T08:28:24.582Z,97.40
2019-05-19T08:30:57.350Z,95.10
2019-05-19T08:33:27.268Z,91.90
2019-05-19T08:35:59.842Z,89.50
2019-05-19T08:38:33.009Z,91.10
2019-05-19T08:41:02.925Z,89.50
2019-05-19T08:43:33.091Z,80.50
2019-05-19T08:56:24.556Z,69.30
2019-05-19T08:58:54.234Z,68.20
2019-05-19T09:01:24.297Z,65.40
2019-05-19T09:03:56.942Z,70.10
2019-05-19T09:06:28.476Z,68.20
2019-05-19T09:08:58.267Z,66.50
2019-05-19T09:11:28.308Z,66.70
2019-05-19T09:13:57.950Z,65.00
2019-05-19T09:16:27.500Z,67.30
2019-05-19T09:18:57.472Z,60.20
2019-05-19T09:21:27.812Z,60.90
2019-05-19T09:24:00.431Z,63.20
2019-05-19T09:26:30.597Z,69.40
2019-05-19T09:29:00.346Z,66.30
2019-05-19T09:31:33.445Z,70.30
2019-05-19T09:34:03.168Z,65.00
2019-05-19T09:36:33.110Z,62.30
2019-05-19T09:39:06.107Z,67.70
2019-05-19T09:41:39.984Z,60.60
2019-05-19T09:44:11.990Z,62.50
2019-05-19T09:46:50.795Z,58.90
2019-05-19T09:49:33.735Z,66.40
2019-05-19T09:52:09.968Z,68.90
2019-05-19T09:54:45.156Z,70.60
2019-05-19T09:57:19.476Z,68.40
2019-05-19T09:59:49.441Z,71.50
2019-05-19T10:02:21.178Z,73.10
2019-05-19T10:04:58.508Z,78.00
2019-05-19T10:07:31.814Z,73.70
2019-05-19T10:10:06.731Z,79.80
2019-05-19T10:14:16.610Z,73.40
2019-05-19T10:15:19.748Z,74.50
2019-05-19T10:17:53.224Z,73.00
2019-05-19T10:20:23.833Z,73.00
2019-05-19T10:22:54.102Z,70.50
2019-05-19T10:25:33.052Z,68.80
2019-05-19T10:28:11.039Z,72.90
2019-05-19T10:30:44.953Z,71.30
2019-05-19T10:33:52.390Z,69.80
2019-05-19T10:36:55.145Z,71.50
2019-05-19T10:39:24.911Z,68.10
2019-05-19T10:41:55.275Z,73.40
2019-05-19T10:44:28.002Z,72.10
2019-05-19T10:46:58.082Z,71.00
2019-05-19T10:49:28.091Z,68.00
2019-05-19T10:51:58.522Z,69.00
2019-05-19T10:54:28.617Z,69.20
2019-05-19T10:57:01.392Z,74.20
2019-05-19T10:59:31.131Z,75.20
2019-05-19T11:02:01.043Z,71.50
2019-05-19T11:04:40.011Z,72.10
2019-05-19T11:07:09.987Z,72.40
2019-05-19T11:09:39.840Z,75.80
2019-05-19T11:12:09.674Z,73.80
2019-05-19T11:14:39.218Z,72.30
2019-05-19T11:17:09.278Z,75.50
2019-05-19T11:19:42.734Z,76.70
2019-05-19T11:22:12.751Z,76.50
2019-05-19T11:24:45.164Z,79.20
2019-05-19T11:27:14.829Z,78.20
2019-05-19T11:29:44.851Z,78.70
2019-05-19T11:32:15.174Z,79.50
2019-05-19T11:34:44.881Z,77.50
2019-05-19T11:37:19.919Z,72.60
2019-05-19T11:39:49.805Z,74.00
2019-05-19T11:42:19.749Z,74.20
2019-05-19T11:44:49.359Z,73.30
2019-05-19T11:47:19.243Z,73.30
2019-05-19T11:49:51.951Z,72.90
2019-05-19T11:52:21.624Z,72.30
2019-05-19T11:57:40.234Z,70.70
2019-05-19T12:00:10.039Z,71.40
2019-05-19T12:02:48.115Z,77.30
2019-05-19T12:05:17.834Z,75.00
2019-05-19T12:07:47.228Z,77.60
2019-05-19T12:10:16.602Z,78.10
2019-05-19T12:12:45.963Z,77.40
2019-05-19T12:15:15.461Z,73.30
2019-05-19T12:17:44.837Z,76.90
2019-05-19T12:20:14.260Z,76.40
2019-05-19T12:22:43.578Z,75.00
2019-05-19T12:25:12.880Z,73.50
2019-05-19T12:27:42.294Z,76.80
2019-05-19T12:30:12.187Z,75.10
2019-05-19T12:32:41.499Z,73.70
2019-05-19T12:35:10.997Z,73.90
2019-05-19T12:37:40.486Z,72.00
2019-05-19T12:40:09.799Z,78.70
2019-05-19T12:42:39.191Z,76.80
2019-05-19T12:45:08.531Z,75.60
2019-05-19T12:47:37.747Z,76.80
2019-05-19T12:50:07.776Z,76.40
2019-05-19T12:52:37.271Z,76.50
2019-05-19T12:55:06.532Z,79.70
2019-05-19T12:57:35.763Z,82.60
2019-05-19T13:00:04.961Z,86.40
2019-05-19T13:02:34.192Z,89.10
2019-05-19T13:05:05.485Z,88.80
2019-05-19T13:07:34.251Z,90.30
2019-05-19T13:10:03.476Z,91.90
2019-05-19T13:12:32.645Z,92.80
2019-05-19T13:15:01.805Z,91.10
2019-05-19T13:17:31.036Z,92.40
2019-05-19T13:20:00.249Z,94.20
2019-05-19T13:22:29.395Z,94.90
2019-05-19T13:24:58.633Z,94.70
2019-05-19T13:27:27.800Z,95.30
2019-05-19T13:29:56.974Z,95.30
2019-05-19T13:32:26.069Z,95.50
2019-05-19T13:34:55.230Z,95.40
2019-05-19T13:37:24.390Z,96.70
2019-05-19T13:39:53.616Z,94.60
2019-05-19T13:42:22.852Z,93.30
2019-05-19T13:44:51.968Z,93.60
2019-05-19T13:47:21.192Z,90.50
2019-05-19T13:49:50.376Z,91.20
2019-05-19T13:52:19.598Z,92.70
2019-05-19T13:54:48.737Z,96.10
2019-05-19T13:57:17.836Z,97.40
2019-05-19T13:59:46.942Z,99.90
2019-05-19T14:02:16.205Z,99.90
2019-05-19T14:04:45.423Z,99.90
2019-05-19T14:07:14.642Z,99.90
2019-05-19T14:09:43.845Z,99.90
2019-05-19T14:12:12.977Z,99.90
2019-05-19T14:14:42.219Z,99.90
2019-05-19T14:17:11.389Z,99.90
2019-05-19T14:19:40.559Z,99.90
2019-05-19T14:22:09.693Z,99.90
2019-05-19T14:24:38.872Z,99.90
2019-05-19T14:27:08.028Z,99.90
2019-05-19T14:29:37.145Z,99.90
2019-05-19T14:32:06.286Z,99.90
2019-05-19T14:34:35.513Z,99.90
2019-05-19T14:37:04.661Z,99.90
2019-05-19T14:39:33.781Z,99.90
2019-05-19T14:42:06.639Z,99.90
2019-05-19T14:44:35.836Z,99.90
2019-05-19T14:47:05.000Z,99.90
2019-05-19T14:49:34.124Z,99.90
2019-05-19T14:52:03.312Z,99.90
2019-05-19T14:54:32.511Z,99.90
2019-05-19T14:57:01.693Z,99.90
2019-05-19T14:59:30.917Z,99.90
2019-05-19T15:02:00.055Z,99.90
2019-05-19T15:04:29.195Z,99.90
2019-05-19T15:06:58.286Z,99.90
2019-05-19T15:09:27.452Z,99.90
2019-05-19T15:11:56.595Z,99.90
2019-05-19T15:14:25.785Z,99.90
2019-05-19T15:16:54.924Z,99.90
2019-05-19T15:19:24.091Z,99.90
2019-05-19T15:21:53.404Z,99.90
2019-05-19T15:24:22.610Z,99.90
2019-05-19T15:26:51.800Z,99.90
2019-05-19T15:29:21.754Z,99.90
2019-05-19T15:31:51.104Z,99.90
2019-05-19T15:34:20.288Z,99.90
2019-05-19T15:36:49.501Z,99.90
2019-05-19T15:39:18.687Z,99.90
2019-05-19T15:41:47.864Z,99.90
2019-05-19T15:44:17.002Z,99.90
2019-05-19T15:46:46.177Z,99.90
2019-05-19T15:49:15.421Z,99.90
2019-05-19T15:51:59.176Z,99.90
2019-05-19T15:54:15.456Z,99.90
2019-05-19T15:56:44.711Z,99.90
2019-05-19T15:59:13.837Z,99.90
2019-05-19T16:01:43.020Z,99.90
2019-05-19T16:04:12.212Z,99.90
2019-05-19T16:06:41.386Z,99.90
2019-05-19T16:09:10.636Z,99.90
2019-05-19T16:11:39.753Z,99.90
2019-05-19T16:14:08.872Z,99.90
2019-05-19T16:16:37.979Z,99.90
2019-05-19T16:19:07.176Z,99.90
2019-05-19T16:21:36.376Z,99.90
2019-05-19T16:24:05.512Z,99.90
2019-05-19T16:26:34.684Z,99.90
2019-05-19T16:29:03.860Z,99.90
2019-05-19T16:31:33.105Z,99.90
2019-05-19T16:34:02.352Z,99.90
2019-05-19T16:36:31.610Z,99.90
2019-05-19T16:39:00.720Z,99.90
2019-05-19T16:41:29.998Z,99.90
2019-05-19T16:43:59.284Z,99.90
2019-05-19T16:46:28.468Z,99.90
2019-05-19T16:48:57.627Z,99.90
2019-05-19T16:51:26.873Z,99.90
2019-05-19T16:53:58.637Z,99.90
2019-05-19T16:56:27.868Z,99.90
2019-05-19T16:58:57.125Z,99.90
2019-05-19T17:01:26.472Z,99.90
2019-05-19T17:03:55.608Z,99.90
2019-05-19T17:06:24.684Z,99.90
2019-05-19T17:08:53.824Z,99.90
2019-05-19T17:11:23.000Z,99.90
2019-05-19T17:13:53.506Z,99.90
2019-05-19T17:16:22.756Z,99.90
2019-05-19T17:18:51.901Z,99.90
2019-05-19T17:21:21.003Z,99.90
2019-05-19T17:23:50.545Z,99.90
2019-05-19T17:26:19.766Z,99.90
2019-05-19T17:29:00.275Z,99.90
2019-05-19T17:31:20.081Z,99.90
2019-05-19T17:33:49.203Z,99.90
2019-05-19T17:36:18.369Z,99.90
2019-05-19T17:38:47.442Z,99.90
2019-05-19T17:41:16.654Z,99.90
2019-05-19T17:43:47.736Z,99.90
2019-05-19T17:46:16.935Z,99.90
2019-05-19T17:48:46.162Z,99.90
2019-05-19T17:51:15.401Z,99.90
2019-05-19T17:53:44.576Z,99.90
2019-05-19T17:56:13.821Z,99.90
2019-05-19T17:58:43.003Z,99.90
2019-05-19T18:01:12.292Z,99.90
2019-05-19T18:03:41.444Z,99.90
2019-05-19T18:06:10.648Z,99.90
2019-05-19T18:08:39.856Z,99.90
2019-05-19T18:11:08.952Z,99.90
2019-05-19T18:13:38.096Z,99.90
2019-05-19T18:16:07.238Z,99.90
2019-05-19T18:18:36.475Z,99.90
2019-05-19T18:21:05.697Z,99.90
2019-05-19T18:23:34.848Z,99.90
2019-05-19T18:26:07.058Z,99.90
2019-05-19T18:28:35.035Z,99.90
2019-05-19T18:31:04.266Z,99.90
2019-05-19T18:33:33.464Z,99.90
2019-05-19T18:36:02.652Z,99.90
2019-05-19T18:38:31.878Z,99.90
2019-05-19T18:41:01.104Z,99.90
2019-05-19T18:43:30.346Z,99.90
2019-05-19T18:45:59.540Z,99.90
2019-05-19T18:48:28.666Z,99.90
2019-05-19T18:50:57.825Z,99.90
2019-05-19T18:53:27.011Z,99.90
2019-05-19T18:55:56.204Z,99.90
2019-05-19T18:58:25.320Z,99.90
2019-05-19T19:00:54.596Z,99.90
2019-05-19T19:03:23.778Z,99.90
2019-05-19T19:05:53.028Z,99.90
2019-05-19T19:08:22.512Z,99.90
2019-05-19T19:10:51.605Z,99.90
2019-05-19T19:13:20.812Z,99.90
2019-05-19T19:15:50.140Z,99.90
2019-05-19T19:18:19.243Z,99.90
2019-05-19T19:20:48.698Z,99.90
2019-05-19T19:23:19.496Z,99.90
2019-05-19T19:25:48.700Z,99.90
2019-05-19T19:28:17.820Z,99.90
2019-05-19T19:30:47.203Z,99.90
2019-05-19T19:33:16.296Z,99.90
2019-05-19T19:35:45.557Z,99.90
2019-05-19T19:38:14.874Z,99.90
2019-05-19T19:40:44.027Z,99.90
2019-05-19T19:43:13.150Z,99.90
2019-05-19T19:45:42.368Z,99.90
2019-05-19T19:48:11.485Z,99.90
2019-05-19T19:50:40.577Z,99.90
2019-05-19T19:53:09.716Z,99.90
2019-05-19T19:55:38.955Z,99.90
2019-05-19T19:58:08.080Z,99.90
2019-05-19T20:00:41.907Z,99.90
2019-05-19T20:03:11.140Z,99.90
2019-05-19T20:05:40.368Z,99.90
2019-05-19T20:08:09.586Z,99.90
2019-05-19T20:10:38.680Z,99.90
2019-05-19T20:13:07.820Z,99.90
2019-05-19T20:15:37.920Z,99.90
2019-05-19T20:18:07.076Z,99.90
2019-05-19T20:20:36.236Z,99.90
2019-05-19T20:23:05.353Z,99.90
2019-05-19T20:25:37.155Z,99.90
2019-05-19T20:28:05.385Z,99.90
2019-05-19T20:30:36.468Z,99.90
2019-05-19T20:33:05.387Z,99.90
2019-05-19T20:35:34.604Z,99.90
2019-05-19T20:38:03.785Z,99.90
2019-05-19T20:40:32.944Z,99.90
2019-05-19T20:43:02.202Z,99.90
2019-05-19T20:45:31.443Z,99.90
2019-05-19T20:48:00.611Z,99.90
2019-05-19T20:50:32.829Z,99.90
2019-05-19T20:53:02.230Z,99.90
2019-05-19T20:55:31.368Z,99.90
2019-05-19T20:58:00.584Z,99.90
2019-05-19T21:00:29.767Z,99.90
2019-05-19T21:02:58.984Z,99.90
2019-05-19T21:05:28.084Z,99.90
2019-05-19T21:07:57.304Z,99.90
2019-05-19T21:10:26.534Z,99.90
2019-05-19T21:12:57.629Z,99.90
2019-05-19T21:15:26.541Z,99.90
2019-05-19T21:17:55.772Z,99.90
2019-05-19T21:20:26.059Z,99.90
2019-05-19T21:22:55.310Z,99.90
2019-05-19T21:25:24.662Z,99.90
2019-05-19T21:27:53.798Z,99.90
2019-05-19T21:30:22.976Z,99.90
2019-05-19T21:32:52.068Z,99.90
2019-05-19T21:35:21.228Z,99.90
2019-05-19T21:37:50.361Z,99.90
2019-05-19T21:40:19.628Z,99.90
2019-05-19T21:42:48.783Z,99.90
2019-05-19T21:45:18.000Z,99.90
2019-05-19T21:47:47.283Z,99.90
2019-05-19T21:50:16.472Z,99.90
2019-05-19T21:52:45.656Z,99.90
2019-05-19T21:55:14.836Z,99.90
2019-05-19T21:57:44.180Z,99.90
2019-05-19T22:00:15.543Z,99.90
2019-05-19T22:02:44.688Z,99.90
2019-05-19T22:05:13.807Z,99.90
2019-05-19T22:07:53.503Z,99.90
2019-05-19T22:10:22.725Z,99.90
2019-05-19T22:12:51.899Z,99.90
2019-05-19T22:15:21.077Z,99.90
2019-05-19T22:17:50.200Z,99.90
2019-05-19T22:20:19.324Z,99.90
2019-05-19T22:22:48.476Z,99.90
2019-05-19T22:25:17.620Z,99.90
2019-05-19T22:27:46.806Z,99.90
2019-05-19T22:30:16.018Z,99.90
2019-05-19T22:32:45.141Z,99.90
2019-05-19T22:35:14.291Z,99.90
2019-05-19T22:37:43.412Z,99.90
2019-05-19T22:40:12.768Z,99.90
2019-05-19T22:42:41.972Z,99.90
2019-05-19T22:45:11.164Z,99.90
2019-05-19T22:47:40.256Z,99.90
2019-05-19T22:50:09.990Z,99.90
2019-05-19T22:52:39.180Z,99.90
2019-05-19T22:55:08.802Z,99.90
2019-05-19T22:57:37.934Z,99.90
2019-05-19T23:00:08.100Z,99.90
2019-05-19T23:02:37.235Z,99.90
2019-05-19T23:05:06.725Z,99.90
2019-05-19T23:07:35.950Z,99.90
2019-05-19T23:10:05.495Z,99.90
2019-05-19T23:12:34.829Z,99.90
2019-05-19T23:15:04.197Z,99.90
2019-05-19T23:17:33.356Z,99.90
2019-05-19T23:20:02.495Z,99.90
2019-05-19T23:22:31.669Z,99.90
2019-05-19T23:25:00.867Z,99.90
2019-05-19T23:27:30.056Z,99.90
2019-05-19T23:29:59.176Z,99.90
2019-05-19T23:32:28.333Z,99.90
2019-05-19T23:34:57.652Z,99.90
2019-05-19T23:37:26.796Z,99.90
2019-05-19T23:39:55.899Z,99.90
2019-05-19T23:42:26.347Z,99.90
2019-05-19T23:44:58.080Z,99.90
2019-05-19T23:47:27.240Z,99.90
2019-05-19T23:49:56.445Z,99.90
2019-05-19T23:52:25.545Z,99.90
2019-05-19T23:54:54.637Z,99.90
2019-05-19T23:57:23.756Z,99.90
2019-05-19T23:59:52.875Z,99.90
